sensor_id;sensor_type;location;lat;lon;timestamp;temperature;humidity
74811;DHT22;63340;48.404;-4.506;2023-02-01T00:01:19;13.13;61.52
74811;DHT22;63340;48.404;-4.506;2023-02-01T00:03:44;13.13;61.65
74811;DHT22;63340;48.404;-4.506;2023-02-01T00:06:09;13.13;61.84
74811;DHT22;63340;48.404;-4.506;2023-02-01T00:08:35;13.14;61.74
74811;DHT22;63340;48.404;-4.506;2023-02-01T00:11:06;13.14;61.79
74811;DHT22;63340;48.404;-4.506;2023-02-01T00:13:34;13.10;61.81
74811;DHT22;63340;48.404;-4.506;2023-02-01T00:18:37;13.13;61.63
74811;DHT22;63340;48.404;-4.506;2023-02-01T00:21:03;13.03;61.26
74811;DHT22;63340;48.404;-4.506;2023-02-01T00:23:32;12.93;61.42
74811;DHT22;63340;48.404;-4.506;2023-02-01T00:26:00;12.86;61.54
74811;DHT22;63340;48.404;-4.506;2023-02-01T00:28:26;12.82;61.76
74811;DHT22;63340;48.404;-4.506;2023-02-01T00:31:00;12.79;61.56
74811;DHT22;63340;48.404;-4.506;2023-02-01T00:33:27;12.76;61.81
74811;DHT22;63340;48.404;-4.506;2023-02-01T00:35:57;12.82;61.87
74811;DHT22;63340;48.404;-4.506;2023-02-01T00:38:24;12.84;62.03
74811;DHT22;63340;48.404;-4.506;2023-02-01T00:40:49;12.86;61.91
74811;DHT22;63340;48.404;-4.506;2023-02-01T00:43:15;12.85;62.02
74811;DHT22;63340;48.404;-4.506;2023-02-01T00:45:40;12.85;62.10
74811;DHT22;63340;48.404;-4.506;2023-02-01T00:48:06;12.85;61.88
74811;DHT22;63340;48.404;-4.506;2023-02-01T00:50:31;12.85;61.75
74811;DHT22;63340;48.404;-4.506;2023-02-01T00:52:57;12.85;61.67
74811;DHT22;63340;48.404;-4.506;2023-02-01T00:55:22;12.85;61.70
74811;DHT22;63340;48.404;-4.506;2023-02-01T00:57:47;12.82;61.32
74811;DHT22;63340;48.404;-4.506;2023-02-01T01:00:13;12.84;61.64
74811;DHT22;63340;48.404;-4.506;2023-02-01T01:02:39;12.86;61.61
74811;DHT22;63340;48.404;-4.506;2023-02-01T01:05:04;12.88;61.60
74811;DHT22;63340;48.404;-4.506;2023-02-01T01:07:30;12.88;61.49
74811;DHT22;63340;48.404;-4.506;2023-02-01T01:09:55;12.86;61.40
74811;DHT22;63340;48.404;-4.506;2023-02-01T01:12:20;12.86;61.23
74811;DHT22;63340;48.404;-4.506;2023-02-01T01:14:49;12.88;61.17
74811;DHT22;63340;48.404;-4.506;2023-02-01T01:17:14;12.88;61.08
74811;DHT22;63340;48.404;-4.506;2023-02-01T01:19:40;12.89;61.05
74811;DHT22;63340;48.404;-4.506;2023-02-01T01:22:05;12.89;60.98
74811;DHT22;63340;48.404;-4.506;2023-02-01T01:24:33;12.91;61.13
74811;DHT22;63340;48.404;-4.506;2023-02-01T01:26:58;12.92;61.35
74811;DHT22;63340;48.404;-4.506;2023-02-01T01:29:24;12.93;61.34
74811;DHT22;63340;48.404;-4.506;2023-02-01T01:31:49;12.96;61.36
74811;DHT22;63340;48.404;-4.506;2023-02-01T01:34:14;12.95;61.13
74811;DHT22;63340;48.404;-4.506;2023-02-01T01:36:40;12.93;60.90
74811;DHT22;63340;48.404;-4.506;2023-02-01T01:39:05;12.91;61.11
74811;DHT22;63340;48.404;-4.506;2023-02-01T01:41:31;12.93;61.30
74811;DHT22;63340;48.404;-4.506;2023-02-01T01:44:05;12.93;61.04
74811;DHT22;63340;48.404;-4.506;2023-02-01T01:46:38;12.97;61.10
74811;DHT22;63340;48.404;-4.506;2023-02-01T01:49:21;12.99;61.21
74811;DHT22;63340;48.404;-4.506;2023-02-01T01:51:52;13.00;61.09
74811;DHT22;63340;48.404;-4.506;2023-02-01T01:54:34;12.99;60.52
74811;DHT22;63340;48.404;-4.506;2023-02-01T01:57:11;12.93;60.47
74811;DHT22;63340;48.404;-4.506;2023-02-01T01:59:40;12.92;61.13
74811;DHT22;63340;48.404;-4.506;2023-02-01T02:02:06;12.85;61.09
74811;DHT22;63340;48.404;-4.506;2023-02-01T02:04:33;12.88;60.64
74811;DHT22;63340;48.404;-4.506;2023-02-01T02:07:02;12.86;61.20
74811;DHT22;63340;48.404;-4.506;2023-02-01T02:09:29;12.91;61.31
74811;DHT22;63340;48.404;-4.506;2023-02-01T02:11:54;12.92;61.13
74811;DHT22;63340;48.404;-4.506;2023-02-01T02:14:22;12.91;60.31
74811;DHT22;63340;48.404;-4.506;2023-02-01T02:19:55;12.84;60.35
74811;DHT22;63340;48.404;-4.506;2023-02-01T02:27:51;12.66;60.15
74811;DHT22;63340;48.404;-4.506;2023-02-01T02:36:13;12.57;59.82
74811;DHT22;63340;48.404;-4.506;2023-02-01T02:38:50;12.55;59.81
74811;DHT22;63340;48.404;-4.506;2023-02-01T02:44:13;12.62;59.49
74811;DHT22;63340;48.404;-4.506;2023-02-01T02:47:05;12.64;60.03
74811;DHT22;63340;48.404;-4.506;2023-02-01T02:53:23;12.66;60.11
74811;DHT22;63340;48.404;-4.506;2023-02-01T02:56:10;12.69;60.39
74811;DHT22;63340;48.404;-4.506;2023-02-01T02:58:55;12.69;60.17
74811;DHT22;63340;48.404;-4.506;2023-02-01T03:01:40;12.68;59.80
74811;DHT22;63340;48.404;-4.506;2023-02-01T03:04:24;12.71;60.01
74811;DHT22;63340;48.404;-4.506;2023-02-01T03:06:52;12.76;59.71
74811;DHT22;63340;48.404;-4.506;2023-02-01T03:09:30;12.76;59.72
74811;DHT22;63340;48.404;-4.506;2023-02-01T03:12:01;12.76;59.14
74811;DHT22;63340;48.404;-4.506;2023-02-01T03:14:49;12.79;59.54
74811;DHT22;63340;48.404;-4.506;2023-02-01T03:17:21;12.78;59.81
74811;DHT22;63340;48.404;-4.506;2023-02-01T03:19:52;12.85;59.73
74811;DHT22;63340;48.404;-4.506;2023-02-01T03:22:24;12.91;59.60
74811;DHT22;63340;48.404;-4.506;2023-02-01T03:24:56;12.88;59.66
74811;DHT22;63340;48.404;-4.506;2023-02-01T03:27:34;12.86;59.76
74811;DHT22;63340;48.404;-4.506;2023-02-01T03:30:09;12.84;59.84
74811;DHT22;63340;48.404;-4.506;2023-02-01T03:32:36;12.81;59.97
74811;DHT22;63340;48.404;-4.506;2023-02-01T03:36:15;12.82;59.87
74811;DHT22;63340;48.404;-4.506;2023-02-01T03:38:53;12.85;60.44
74811;DHT22;63340;48.404;-4.506;2023-02-01T03:41:41;12.86;60.34
74811;DHT22;63340;48.404;-4.506;2023-02-01T03:44:20;12.88;60.16
74811;DHT22;63340;48.404;-4.506;2023-02-01T03:46:54;12.88;60.18
74811;DHT22;63340;48.404;-4.506;2023-02-01T03:49:27;12.85;59.48
74811;DHT22;63340;48.404;-4.506;2023-02-01T03:51:55;12.81;59.75
74811;DHT22;63340;48.404;-4.506;2023-02-01T03:54:22;12.71;59.04
74811;DHT22;63340;48.404;-4.506;2023-02-01T03:56:50;12.65;59.86
74811;DHT22;63340;48.404;-4.506;2023-02-01T03:59:16;12.65;59.29
74811;DHT22;63340;48.404;-4.506;2023-02-01T04:01:42;12.64;59.77
74811;DHT22;63340;48.404;-4.506;2023-02-01T04:04:08;12.62;59.37
74811;DHT22;63340;48.404;-4.506;2023-02-01T04:06:34;12.58;59.73
74811;DHT22;63340;48.404;-4.506;2023-02-01T04:09:00;12.62;59.77
74811;DHT22;63340;48.404;-4.506;2023-02-01T04:11:25;12.66;59.82
74811;DHT22;63340;48.404;-4.506;2023-02-01T04:13:52;12.72;59.76
74811;DHT22;63340;48.404;-4.506;2023-02-01T04:16:18;12.72;58.73
74811;DHT22;63340;48.404;-4.506;2023-02-01T04:18:43;12.72;59.00
74811;DHT22;63340;48.404;-4.506;2023-02-01T04:21:09;12.71;58.79
74811;DHT22;63340;48.404;-4.506;2023-02-01T04:23:34;12.69;58.75
74811;DHT22;63340;48.404;-4.506;2023-02-01T04:26:03;12.55;57.22
74811;DHT22;63340;48.404;-4.506;2023-02-01T04:28:29;12.57;57.80
74811;DHT22;63340;48.404;-4.506;2023-02-01T04:30:55;12.54;58.05
74811;DHT22;63340;48.404;-4.506;2023-02-01T04:33:20;12.54;57.44
74811;DHT22;63340;48.404;-4.506;2023-02-01T04:35:47;12.55;57.24
74811;DHT22;63340;48.404;-4.506;2023-02-01T04:38:12;12.54;58.40
74811;DHT22;63340;48.404;-4.506;2023-02-01T04:40:38;12.52;57.47
74811;DHT22;63340;48.404;-4.506;2023-02-01T04:43:04;12.47;57.09
74811;DHT22;63340;48.404;-4.506;2023-02-01T04:45:30;12.49;57.92
74811;DHT22;63340;48.404;-4.506;2023-02-01T04:47:55;12.48;57.95
74811;DHT22;63340;48.404;-4.506;2023-02-01T04:50:21;12.52;56.85
74811;DHT22;63340;48.404;-4.506;2023-02-01T04:52:47;12.52;57.49
74811;DHT22;63340;48.404;-4.506;2023-02-01T04:55:12;12.55;57.63
74811;DHT22;63340;48.404;-4.506;2023-02-01T04:57:42;12.54;57.51
74811;DHT22;63340;48.404;-4.506;2023-02-01T05:00:08;12.54;57.95
74811;DHT22;63340;48.404;-4.506;2023-02-01T05:02:34;12.55;57.97
74811;DHT22;63340;48.404;-4.506;2023-02-01T05:05:03;12.54;58.25
74811;DHT22;63340;48.404;-4.506;2023-02-01T05:07:29;12.61;58.04
74811;DHT22;63340;48.404;-4.506;2023-02-01T05:10:01;12.64;57.94
74811;DHT22;63340;48.404;-4.506;2023-02-01T05:12:26;12.66;57.94
74811;DHT22;63340;48.404;-4.506;2023-02-01T05:15:10;12.71;58.04
74811;DHT22;63340;48.404;-4.506;2023-02-01T05:17:36;12.74;57.55
74811;DHT22;63340;48.404;-4.506;2023-02-01T05:20:05;12.78;57.88
74811;DHT22;63340;48.404;-4.506;2023-02-01T05:22:36;12.81;57.69
74811;DHT22;63340;48.404;-4.506;2023-02-01T05:25:05;12.81;57.97
74811;DHT22;63340;48.404;-4.506;2023-02-01T05:27:34;12.85;57.85
74811;DHT22;63340;48.404;-4.506;2023-02-01T05:30:03;12.82;57.83
74811;DHT22;63340;48.404;-4.506;2023-02-01T05:32:28;12.79;58.19
74811;DHT22;63340;48.404;-4.506;2023-02-01T05:34:54;12.82;57.82
74811;DHT22;63340;48.404;-4.506;2023-02-01T05:37:20;12.81;58.00
74811;DHT22;63340;48.404;-4.506;2023-02-01T05:39:45;12.85;58.01
74811;DHT22;63340;48.404;-4.506;2023-02-01T05:42:11;12.86;58.09
74811;DHT22;63340;48.404;-4.506;2023-02-01T05:44:37;12.88;58.30
74811;DHT22;63340;48.404;-4.506;2023-02-01T05:47:05;12.88;58.06
74811;DHT22;63340;48.404;-4.506;2023-02-01T05:49:34;12.92;58.11
74811;DHT22;63340;48.404;-4.506;2023-02-01T05:52:22;12.85;57.89
74811;DHT22;63340;48.404;-4.506;2023-02-01T05:55:06;12.81;58.42
74811;DHT22;63340;48.404;-4.506;2023-02-01T05:57:35;12.76;58.29
74811;DHT22;63340;48.404;-4.506;2023-02-01T06:00:31;12.75;58.66
74811;DHT22;63340;48.404;-4.506;2023-02-01T06:03:27;12.76;58.54
74811;DHT22;63340;48.404;-4.506;2023-02-01T06:09:05;12.71;58.50
74811;DHT22;63340;48.404;-4.506;2023-02-01T06:11:36;12.72;58.63
74811;DHT22;63340;48.404;-4.506;2023-02-01T06:14:33;12.76;58.78
74811;DHT22;63340;48.404;-4.506;2023-02-01T06:17:11;12.79;58.59
74811;DHT22;63340;48.404;-4.506;2023-02-01T06:30:30;12.68;58.86
74811;DHT22;63340;48.404;-4.506;2023-02-01T06:36:42;12.75;58.76
74811;DHT22;63340;48.404;-4.506;2023-02-01T06:39:45;12.71;59.03
74811;DHT22;63340;48.404;-4.506;2023-02-01T06:49:01;12.75;59.27
74811;DHT22;63340;48.404;-4.506;2023-02-01T06:54:55;12.82;59.44
74811;DHT22;63340;48.404;-4.506;2023-02-01T07:01:12;12.78;59.32
74811;DHT22;63340;48.404;-4.506;2023-02-01T07:06:20;12.79;59.41
74811;DHT22;63340;48.404;-4.506;2023-02-01T07:08:54;12.81;59.51
74811;DHT22;63340;48.404;-4.506;2023-02-01T07:11:31;12.82;59.48
74811;DHT22;63340;48.404;-4.506;2023-02-01T07:14:09;12.85;59.56
74811;DHT22;63340;48.404;-4.506;2023-02-01T07:23:49;12.84;59.10
74811;DHT22;63340;48.404;-4.506;2023-02-01T07:26:38;12.84;59.22
74811;DHT22;63340;48.404;-4.506;2023-02-01T07:29:09;12.82;59.22
74811;DHT22;63340;48.404;-4.506;2023-02-01T07:31:36;12.82;59.48
74811;DHT22;63340;48.404;-4.506;2023-02-01T07:34:01;12.84;59.55
74811;DHT22;63340;48.404;-4.506;2023-02-01T07:36:28;12.82;59.19
74811;DHT22;63340;48.404;-4.506;2023-02-01T07:38:53;12.76;59.29
74811;DHT22;63340;48.404;-4.506;2023-02-01T07:41:19;12.74;59.24
74811;DHT22;63340;48.404;-4.506;2023-02-01T07:43:45;12.69;59.13
74811;DHT22;63340;48.404;-4.506;2023-02-01T07:46:11;12.65;59.24
74811;DHT22;63340;48.404;-4.506;2023-02-01T07:48:37;12.64;59.31
74811;DHT22;63340;48.404;-4.506;2023-02-01T07:51:05;12.61;59.48
74811;DHT22;63340;48.404;-4.506;2023-02-01T07:53:32;12.62;59.64
74811;DHT22;63340;48.404;-4.506;2023-02-01T07:55:58;12.64;59.66
74811;DHT22;63340;48.404;-4.506;2023-02-01T07:58:24;12.62;59.48
74811;DHT22;63340;48.404;-4.506;2023-02-01T08:00:50;12.61;59.46
74811;DHT22;63340;48.404;-4.506;2023-02-01T08:03:38;12.54;59.53
74811;DHT22;63340;48.404;-4.506;2023-02-01T08:06:04;12.51;59.58
74811;DHT22;63340;48.404;-4.506;2023-02-01T08:11:22;12.42;59.86
74811;DHT22;63340;48.404;-4.506;2023-02-01T08:13:57;12.44;59.89
74811;DHT22;63340;48.404;-4.506;2023-02-01T08:16:23;12.48;59.98
74811;DHT22;63340;48.404;-4.506;2023-02-01T08:19:24;12.51;60.09
74811;DHT22;63340;48.404;-4.506;2023-02-01T08:21:52;12.54;60.15
74811;DHT22;63340;48.404;-4.506;2023-02-01T08:24:18;12.57;59.87
74811;DHT22;63340;48.404;-4.506;2023-02-01T08:26:47;12.57;60.13
74811;DHT22;63340;48.404;-4.506;2023-02-01T08:29:13;12.59;59.84
74811;DHT22;63340;48.404;-4.506;2023-02-01T08:31:39;12.58;59.84
74811;DHT22;63340;48.404;-4.506;2023-02-01T08:34:11;12.58;60.04
74811;DHT22;63340;48.404;-4.506;2023-02-01T08:36:37;12.57;60.16
74811;DHT22;63340;48.404;-4.506;2023-02-01T08:39:03;12.54;60.15
74811;DHT22;63340;48.404;-4.506;2023-02-01T08:41:34;12.52;60.12
74811;DHT22;63340;48.404;-4.506;2023-02-01T08:44:00;12.54;60.35
74811;DHT22;63340;48.404;-4.506;2023-02-01T08:46:26;12.58;60.39
74811;DHT22;63340;48.404;-4.506;2023-02-01T08:48:51;12.55;60.14
74811;DHT22;63340;48.404;-4.506;2023-02-01T08:51:19;12.54;59.94
74811;DHT22;63340;48.404;-4.506;2023-02-01T08:53:49;12.52;60.05
74811;DHT22;63340;48.404;-4.506;2023-02-01T08:56:17;12.52;60.02
74811;DHT22;63340;48.404;-4.506;2023-02-01T08:58:45;12.54;60.16
74811;DHT22;63340;48.404;-4.506;2023-02-01T09:01:13;12.54;59.83
74811;DHT22;63340;48.404;-4.506;2023-02-01T10:20:26;13.12;59.54
74811;DHT22;63340;48.404;-4.506;2023-02-01T10:23:19;13.14;58.93
74811;DHT22;63340;48.404;-4.506;2023-02-01T10:26:01;13.19;58.92
74811;DHT22;63340;48.404;-4.506;2023-02-01T10:28:33;13.23;58.70
74811;DHT22;63340;48.404;-4.506;2023-02-01T10:31:01;13.23;57.73
74811;DHT22;63340;48.404;-4.506;2023-02-01T10:33:34;13.17;56.42
74811;DHT22;63340;48.404;-4.506;2023-02-01T10:36:16;13.17;56.57
74811;DHT22;63340;48.404;-4.506;2023-02-01T10:38:43;13.19;56.29
74811;DHT22;63340;48.404;-4.506;2023-02-01T10:41:15;13.16;56.44
74811;DHT22;63340;48.404;-4.506;2023-02-01T10:43:48;13.17;56.26
74811;DHT22;63340;48.404;-4.506;2023-02-01T10:46:14;13.24;56.14
74811;DHT22;63340;48.404;-4.506;2023-02-01T10:48:41;13.23;55.03
74811;DHT22;63340;48.404;-4.506;2023-02-01T10:51:19;13.19;54.78
74811;DHT22;63340;48.404;-4.506;2023-02-01T10:54:21;13.17;54.63
74811;DHT22;63340;48.404;-4.506;2023-02-01T10:56:48;13.23;55.22
74811;DHT22;63340;48.404;-4.506;2023-02-01T10:59:20;13.27;54.89
74811;DHT22;63340;48.404;-4.506;2023-02-01T11:01:47;13.30;55.40
74811;DHT22;63340;48.404;-4.506;2023-02-01T11:04:15;13.32;55.36
74811;DHT22;63340;48.404;-4.506;2023-02-01T11:06:44;13.32;54.49
74811;DHT22;63340;48.404;-4.506;2023-02-01T11:09:19;13.30;54.75
74811;DHT22;63340;48.404;-4.506;2023-02-01T11:14:19;13.33;55.34
74811;DHT22;63340;48.404;-4.506;2023-02-01T11:19:59;13.41;55.24
74811;DHT22;63340;48.404;-4.506;2023-02-01T11:23:16;13.44;54.68
74811;DHT22;63340;48.404;-4.506;2023-02-01T11:32:13;13.44;55.06
74811;DHT22;63340;48.404;-4.506;2023-02-01T11:34:46;13.44;55.02
74811;DHT22;63340;48.404;-4.506;2023-02-01T11:37:28;13.46;55.11
74811;DHT22;63340;48.404;-4.506;2023-02-01T11:40:08;13.48;54.95
74811;DHT22;63340;48.404;-4.506;2023-02-01T11:43:01;13.48;54.93
74811;DHT22;63340;48.404;-4.506;2023-02-01T11:45:53;13.54;55.19
74811;DHT22;63340;48.404;-4.506;2023-02-01T11:48:18;13.70;54.70
74811;DHT22;63340;48.404;-4.506;2023-02-01T11:51:13;13.70;54.52
74811;DHT22;63340;48.404;-4.506;2023-02-01T11:57:11;13.88;52.57
74811;DHT22;63340;48.404;-4.506;2023-02-01T12:16:42;14.25;53.22
74811;DHT22;63340;48.404;-4.506;2023-02-01T12:22:14;14.20;51.20
74811;DHT22;63340;48.404;-4.506;2023-02-01T12:28:07;14.05;51.59
74811;DHT22;63340;48.404;-4.506;2023-02-01T12:38:51;13.86;53.27
74811;DHT22;63340;48.404;-4.506;2023-02-01T12:41:36;13.88;53.62
74811;DHT22;63340;48.404;-4.506;2023-02-01T12:44:27;13.86;52.54
74811;DHT22;63340;48.404;-4.506;2023-02-01T12:47:12;13.79;52.16
74811;DHT22;63340;48.404;-4.506;2023-02-01T12:49:55;13.82;53.01
74811;DHT22;63340;48.404;-4.506;2023-02-01T12:52:30;13.72;52.82
74811;DHT22;63340;48.404;-4.506;2023-02-01T12:55:03;13.74;53.46
74811;DHT22;63340;48.404;-4.506;2023-02-01T12:57:33;13.68;52.97
74811;DHT22;63340;48.404;-4.506;2023-02-01T13:00:37;13.72;53.34
74811;DHT22;63340;48.404;-4.506;2023-02-01T13:05:44;13.71;52.38
74811;DHT22;63340;48.404;-4.506;2023-02-01T13:08:17;13.77;52.79
74811;DHT22;63340;48.404;-4.506;2023-02-01T13:11:00;13.78;52.13
74811;DHT22;63340;48.404;-4.506;2023-02-01T13:16:37;13.77;52.39
74811;DHT22;63340;48.404;-4.506;2023-02-01T13:19:22;13.81;52.76
74811;DHT22;63340;48.404;-4.506;2023-02-01T13:21:56;13.74;52.43
74811;DHT22;63340;48.404;-4.506;2023-02-01T13:24:36;13.78;51.89
74811;DHT22;63340;48.404;-4.506;2023-02-01T13:27:04;13.79;52.58
74811;DHT22;63340;48.404;-4.506;2023-02-01T13:29:32;13.68;51.42
74811;DHT22;63340;48.404;-4.506;2023-02-01T13:40:34;13.58;51.87
74811;DHT22;63340;48.404;-4.506;2023-02-01T13:43:27;13.57;51.80
74811;DHT22;63340;48.404;-4.506;2023-02-01T13:45:54;13.55;51.95
74811;DHT22;63340;48.404;-4.506;2023-02-01T13:48:24;13.61;52.24
74811;DHT22;63340;48.404;-4.506;2023-02-01T13:50:55;13.62;51.92
74811;DHT22;63340;48.404;-4.506;2023-02-01T13:53:34;13.62;52.08
74811;DHT22;63340;48.404;-4.506;2023-02-01T13:56:18;13.67;52.85
74811;DHT22;63340;48.404;-4.506;2023-02-01T13:58:46;13.71;52.58
74811;DHT22;63340;48.404;-4.506;2023-02-01T14:03:49;13.77;52.20
74811;DHT22;63340;48.404;-4.506;2023-02-01T14:06:37;13.78;52.47
74811;DHT22;63340;48.404;-4.506;2023-02-01T14:16:40;13.95;52.53
74811;DHT22;63340;48.404;-4.506;2023-02-01T14:19:09;14.01;52.44
74811;DHT22;63340;48.404;-4.506;2023-02-01T14:21:47;14.02;52.08
74811;DHT22;63340;48.404;-4.506;2023-02-01T14:24:27;13.99;51.66
74811;DHT22;63340;48.404;-4.506;2023-02-01T14:26:59;13.97;50.64
74811;DHT22;63340;48.404;-4.506;2023-02-01T14:29:31;13.83;50.07
74811;DHT22;63340;48.404;-4.506;2023-02-01T14:34:39;13.85;51.64
74811;DHT22;63340;48.404;-4.506;2023-02-01T14:39:56;13.99;51.81
74811;DHT22;63340;48.404;-4.506;2023-02-01T14:47:53;14.02;51.67
74811;DHT22;63340;48.404;-4.506;2023-02-01T14:50:27;14.01;51.75
74811;DHT22;63340;48.404;-4.506;2023-02-01T14:55:49;14.04;51.50
74811;DHT22;63340;48.404;-4.506;2023-02-01T14:58:43;13.94;50.98
74811;DHT22;63340;48.404;-4.506;2023-02-01T15:08:47;13.85;52.57
74811;DHT22;63340;48.404;-4.506;2023-02-01T15:11:15;13.81;52.80
74811;DHT22;63340;48.404;-4.506;2023-02-01T15:13:48;13.74;53.15
74811;DHT22;63340;48.404;-4.506;2023-02-01T15:16:16;13.71;53.43
74811;DHT22;63340;48.404;-4.506;2023-02-01T15:18:41;13.71;53.61
74811;DHT22;63340;48.404;-4.506;2023-02-01T15:21:17;13.74;53.74
74811;DHT22;63340;48.404;-4.506;2023-02-01T15:24:27;13.81;53.82
74811;DHT22;63340;48.404;-4.506;2023-02-01T15:26:54;13.79;54.01
74811;DHT22;63340;48.404;-4.506;2023-02-01T15:29:22;13.81;53.87
74811;DHT22;63340;48.404;-4.506;2023-02-01T15:31:52;13.85;53.90
74811;DHT22;63340;48.404;-4.506;2023-02-01T15:34:18;13.89;54.10
74811;DHT22;63340;48.404;-4.506;2023-02-01T15:36:45;13.94;54.20
74811;DHT22;63340;48.404;-4.506;2023-02-01T15:39:24;13.92;54.09
74811;DHT22;63340;48.404;-4.506;2023-02-01T15:41:57;13.91;54.15
74811;DHT22;63340;48.404;-4.506;2023-02-01T15:44:28;13.89;54.26
74811;DHT22;63340;48.404;-4.506;2023-02-01T15:46:55;13.88;54.20
74811;DHT22;63340;48.404;-4.506;2023-02-01T15:49:36;13.88;54.41
74811;DHT22;63340;48.404;-4.506;2023-02-01T15:52:03;13.91;54.56
74811;DHT22;63340;48.404;-4.506;2023-02-01T15:54:32;13.95;54.41
74811;DHT22;63340;48.404;-4.506;2023-02-01T15:57:01;13.89;54.49
74811;DHT22;63340;48.404;-4.506;2023-02-01T15:59:43;13.86;54.58
74811;DHT22;63340;48.404;-4.506;2023-02-01T16:02:32;13.88;54.97
74811;DHT22;63340;48.404;-4.506;2023-02-01T16:04:59;13.85;53.69
74811;DHT22;63340;48.404;-4.506;2023-02-01T16:07:32;13.81;53.19
74811;DHT22;63340;48.404;-4.506;2023-02-01T16:10:00;13.85;53.37
74811;DHT22;63340;48.404;-4.506;2023-02-01T16:15:04;13.79;53.29
74811;DHT22;63340;48.404;-4.506;2023-02-01T16:17:30;13.79;53.10
74811;DHT22;63340;48.404;-4.506;2023-02-01T16:19:55;13.82;53.42
74811;DHT22;63340;48.404;-4.506;2023-02-01T16:22:22;13.82;53.21
74811;DHT22;63340;48.404;-4.506;2023-02-01T16:24:47;13.83;52.81
74811;DHT22;63340;48.404;-4.506;2023-02-01T16:27:13;13.81;53.29
74811;DHT22;63340;48.404;-4.506;2023-02-01T16:29:38;13.82;53.06
74811;DHT22;63340;48.404;-4.506;2023-02-01T16:32:04;13.75;52.83
74811;DHT22;63340;48.404;-4.506;2023-02-01T16:34:30;13.68;53.28
74811;DHT22;63340;48.404;-4.506;2023-02-01T16:36:56;13.61;53.09
74811;DHT22;63340;48.404;-4.506;2023-02-01T16:39:23;13.55;53.53
74811;DHT22;63340;48.404;-4.506;2023-02-01T16:41:49;13.55;54.01
74811;DHT22;63340;48.404;-4.506;2023-02-01T16:44:15;13.54;53.87
74811;DHT22;63340;48.404;-4.506;2023-02-01T16:46:42;13.58;53.77
74811;DHT22;63340;48.404;-4.506;2023-02-01T16:49:21;13.61;53.72
74811;DHT22;63340;48.404;-4.506;2023-02-01T16:51:48;13.57;53.63
74811;DHT22;63340;48.404;-4.506;2023-02-01T16:54:15;13.55;53.87
74811;DHT22;63340;48.404;-4.506;2023-02-01T16:56:41;13.57;53.93
74811;DHT22;63340;48.404;-4.506;2023-02-01T16:59:08;13.60;53.88
74811;DHT22;63340;48.404;-4.506;2023-02-01T17:01:34;13.61;53.68
74811;DHT22;63340;48.404;-4.506;2023-02-01T17:04:01;13.58;53.77
74811;DHT22;63340;48.404;-4.506;2023-02-01T17:06:27;13.60;53.92
74811;DHT22;63340;48.404;-4.506;2023-02-01T17:08:56;13.58;53.93
74811;DHT22;63340;48.404;-4.506;2023-02-01T17:11:25;13.60;53.89
74811;DHT22;63340;48.404;-4.506;2023-02-01T17:13:51;13.62;54.01
74811;DHT22;63340;48.404;-4.506;2023-02-01T17:18:42;13.68;53.92
74811;DHT22;63340;48.404;-4.506;2023-02-01T17:21:09;13.70;53.88
74811;DHT22;63340;48.404;-4.506;2023-02-01T17:23:35;13.75;53.83
74811;DHT22;63340;48.404;-4.506;2023-02-01T17:26:01;13.72;53.69
74811;DHT22;63340;48.404;-4.506;2023-02-01T17:28:27;13.75;53.57
74811;DHT22;63340;48.404;-4.506;2023-02-01T17:30:53;13.71;53.75
74811;DHT22;63340;48.404;-4.506;2023-02-01T17:33:30;13.65;53.34
74811;DHT22;63340;48.404;-4.506;2023-02-01T17:35:56;13.64;53.62
74811;DHT22;63340;48.404;-4.506;2023-02-01T17:38:23;13.68;53.68
74811;DHT22;63340;48.404;-4.506;2023-02-01T17:40:49;13.68;53.77
74811;DHT22;63340;48.404;-4.506;2023-02-01T17:43:19;13.67;53.83
74811;DHT22;63340;48.404;-4.506;2023-02-01T17:45:48;13.62;53.80
74811;DHT22;63340;48.404;-4.506;2023-02-01T17:48:17;13.65;53.84
74811;DHT22;63340;48.404;-4.506;2023-02-01T17:50:44;13.60;53.86
74811;DHT22;63340;48.404;-4.506;2023-02-01T17:53:13;13.57;54.15
74811;DHT22;63340;48.404;-4.506;2023-02-01T17:55:43;13.53;54.09
74811;DHT22;63340;48.404;-4.506;2023-02-01T17:58:13;13.50;54.45
74811;DHT22;63340;48.404;-4.506;2023-02-01T18:00:42;13.51;54.38
74811;DHT22;63340;48.404;-4.506;2023-02-01T18:03:29;13.51;54.52
74811;DHT22;63340;48.404;-4.506;2023-02-01T18:05:57;13.55;54.72
74811;DHT22;63340;48.404;-4.506;2023-02-01T18:08:25;13.57;54.60
74811;DHT22;63340;48.404;-4.506;2023-02-01T18:10:59;13.55;54.75
74811;DHT22;63340;48.404;-4.506;2023-02-01T18:13:30;13.50;54.87
74811;DHT22;63340;48.404;-4.506;2023-02-01T18:15:56;13.54;55.18
74811;DHT22;63340;48.404;-4.506;2023-02-01T18:18:24;13.54;54.87
74811;DHT22;63340;48.404;-4.506;2023-02-01T18:20:49;13.50;54.97
74811;DHT22;63340;48.404;-4.506;2023-02-01T18:23:15;13.51;55.23
74811;DHT22;63340;48.404;-4.506;2023-02-01T18:25:42;13.54;55.21
74811;DHT22;63340;48.404;-4.506;2023-02-01T18:28:09;13.55;55.31
74811;DHT22;63340;48.404;-4.506;2023-02-01T18:30:35;13.55;55.26
74811;DHT22;63340;48.404;-4.506;2023-02-01T18:33:00;13.55;55.26
74811;DHT22;63340;48.404;-4.506;2023-02-01T18:35:28;13.55;55.52
74811;DHT22;63340;48.404;-4.506;2023-02-01T18:37:55;13.55;55.45
74811;DHT22;63340;48.404;-4.506;2023-02-01T18:40:27;13.54;55.45
74811;DHT22;63340;48.404;-4.506;2023-02-01T18:42:54;13.48;55.50
74811;DHT22;63340;48.404;-4.506;2023-02-01T18:45:22;13.44;55.57
74811;DHT22;63340;48.404;-4.506;2023-02-01T18:47:48;13.39;55.71
74811;DHT22;63340;48.404;-4.506;2023-02-01T18:50:14;13.37;55.94
74811;DHT22;63340;48.404;-4.506;2023-02-01T18:52:40;13.39;55.98
74811;DHT22;63340;48.404;-4.506;2023-02-01T18:55:06;13.34;55.95
74811;DHT22;63340;48.404;-4.506;2023-02-01T18:57:32;13.32;56.00
74811;DHT22;63340;48.404;-4.506;2023-02-01T18:59:58;13.30;56.13
74811;DHT22;63340;48.404;-4.506;2023-02-01T19:02:23;13.34;56.50
74811;DHT22;63340;48.404;-4.506;2023-02-01T19:04:49;13.34;56.32
74811;DHT22;63340;48.404;-4.506;2023-02-01T19:07:14;13.34;56.35
74811;DHT22;63340;48.404;-4.506;2023-02-01T19:09:40;13.30;56.48
74811;DHT22;63340;48.404;-4.506;2023-02-01T19:12:05;13.30;56.28
74811;DHT22;63340;48.404;-4.506;2023-02-01T19:14:30;13.27;56.33
74811;DHT22;63340;48.404;-4.506;2023-02-01T19:16:56;13.27;56.42
74811;DHT22;63340;48.404;-4.506;2023-02-01T19:19:23;13.24;56.50
74811;DHT22;63340;48.404;-4.506;2023-02-01T19:21:48;13.24;56.64
74811;DHT22;63340;48.404;-4.506;2023-02-01T19:24:15;13.27;56.80
74811;DHT22;63340;48.404;-4.506;2023-02-01T19:26:41;13.28;56.55
74811;DHT22;63340;48.404;-4.506;2023-02-01T19:29:08;13.28;56.83
74811;DHT22;63340;48.404;-4.506;2023-02-01T19:31:45;13.28;56.99
74811;DHT22;63340;48.404;-4.506;2023-02-01T19:34:12;13.32;56.99
74811;DHT22;63340;48.404;-4.506;2023-02-01T19:36:37;13.28;56.89
74811;DHT22;63340;48.404;-4.506;2023-02-01T19:39:05;13.28;57.03
74811;DHT22;63340;48.404;-4.506;2023-02-01T19:41:34;13.26;56.94